sensor_id;sensor_type;location;lat;lon;timestamp;temperature;humidity
14877;DHT22;69691;48.172;17.070;2024-02-21T00:01:01;9.20;92.50
14877;DHT22;69691;48.172;17.070;2024-02-21T00:03:27;9.30;92.50
14877;DHT22;69691;48.172;17.070;2024-02-21T00:05:55;9.30;92.50
14877;DHT22;69691;48.172;17.070;2024-02-21T00:08:21;9.20;92.50
14877;DHT22;69691;48.172;17.070;2024-02-21T00:10:47;9.20;92.60
14877;DHT22;69691;48.172;17.070;2024-02-21T00:13:12;9.30;92.60
14877;DHT22;69691;48.172;17.070;2024-02-21T00:15:39;9.20;92.50
14877;DHT22;69691;48.172;17.070;2024-02-21T00:18:05;9.20;92.60
14877;DHT22;69691;48.172;17.070;2024-02-21T00:20:30;9.20;92.60
14877;DHT22;69691;48.172;17.070;2024-02-21T00:22:56;9.20;92.60
14877;DHT22;69691;48.172;17.070;2024-02-21T00:25:22;9.20;92.60
14877;DHT22;69691;48.172;17.070;2024-02-21T00:27:48;9.20;92.60
14877;DHT22;69691;48.172;17.070;2024-02-21T00:30:14;9.30;92.60
14877;DHT22;69691;48.172;17.070;2024-02-21T00:32:40;9.30;92.50
14877;DHT22;69691;48.172;17.070;2024-02-21T00:35:06;9.30;92.50
14877;DHT22;69691;48.172;17.070;2024-02-21T00:37:32;9.40;92.40
14877;DHT22;69691;48.172;17.070;2024-02-21T00:39:57;9.40;92.50
14877;DHT22;69691;48.172;17.070;2024-02-21T00:42:23;9.40;92.50
14877;DHT22;69691;48.172;17.070;2024-02-21T00:44:49;9.30;92.40
14877;DHT22;69691;48.172;17.070;2024-02-21T00:47:15;9.40;92.50
14877;DHT22;69691;48.172;17.070;2024-02-21T00:49:41;9.30;92.40
14877;DHT22;69691;48.172;17.070;2024-02-21T00:52:06;9.30;92.40
14877;DHT22;69691;48.172;17.070;2024-02-21T00:54:32;9.30;92.40
14877;DHT22;69691;48.172;17.070;2024-02-21T00:56:58;9.20;92.40
14877;DHT22;69691;48.172;17.070;2024-02-21T00:59:24;9.10;92.60
14877;DHT22;69691;48.172;17.070;2024-02-21T01:01:50;9.10;92.80
14877;DHT22;69691;48.172;17.070;2024-02-21T01:04:16;9.00;92.90
14877;DHT22;69691;48.172;17.070;2024-02-21T01:06:41;9.10;92.90
14877;DHT22;69691;48.172;17.070;2024-02-21T01:09:10;9.10;92.90
14877;DHT22;69691;48.172;17.070;2024-02-21T01:11:37;9.10;92.80
14877;DHT22;69691;48.172;17.070;2024-02-21T01:14:02;9.10;92.80
14877;DHT22;69691;48.172;17.070;2024-02-21T01:16:28;9.10;92.80
14877;DHT22;69691;48.172;17.070;2024-02-21T01:18:54;9.00;92.80
14877;DHT22;69691;48.172;17.070;2024-02-21T01:21:20;9.10;92.90
14877;DHT22;69691;48.172;17.070;2024-02-21T01:23:46;9.00;92.80
14877;DHT22;69691;48.172;17.070;2024-02-21T01:26:11;9.00;92.90
14877;DHT22;69691;48.172;17.070;2024-02-21T01:28:40;9.00;93.00
14877;DHT22;69691;48.172;17.070;2024-02-21T01:31:06;9.00;93.00
14877;DHT22;69691;48.172;17.070;2024-02-21T01:33:31;8.90;93.00
14877;DHT22;69691;48.172;17.070;2024-02-21T01:36:03;8.90;93.00
14877;DHT22;69691;48.172;17.070;2024-02-21T01:38:29;8.90;93.20
14877;DHT22;69691;48.172;17.070;2024-02-21T01:40:57;9.00;93.20
14877;DHT22;69691;48.172;17.070;2024-02-21T01:43:23;9.00;93.10
14877;DHT22;69691;48.172;17.070;2024-02-21T01:45:50;9.00;93.10
14877;DHT22;69691;48.172;17.070;2024-02-21T01:48:18;9.10;93.10
14877;DHT22;69691;48.172;17.070;2024-02-21T01:50:51;9.10;93.30
14877;DHT22;69691;48.172;17.070;2024-02-21T01:53:30;9.10;93.10
14877;DHT22;69691;48.172;17.070;2024-02-21T01:55:56;9.10;92.90
14877;DHT22;69691;48.172;17.070;2024-02-21T01:58:23;9.10;92.80
14877;DHT22;69691;48.172;17.070;2024-02-21T02:00:50;9.00;92.90
14877;DHT22;69691;48.172;17.070;2024-02-21T02:03:17;9.00;93.00
14877;DHT22;69691;48.172;17.070;2024-02-21T02:05:47;9.00;92.90
14877;DHT22;69691;48.172;17.070;2024-02-21T02:08:15;9.00;93.00
14877;DHT22;69691;48.172;17.070;2024-02-21T02:10:42;9.10;93.00
14877;DHT22;69691;48.172;17.070;2024-02-21T02:13:08;9.00;93.20
14877;DHT22;69691;48.172;17.070;2024-02-21T02:15:41;9.10;92.90
14877;DHT22;69691;48.172;17.070;2024-02-21T02:18:09;9.00;92.80
14877;DHT22;69691;48.172;17.070;2024-02-21T02:20:36;9.00;92.80
14877;DHT22;69691;48.172;17.070;2024-02-21T02:25:53;9.10;92.70
14877;DHT22;69691;48.172;17.070;2024-02-21T02:28:19;9.10;92.60
14877;DHT22;69691;48.172;17.070;2024-02-21T02:30:46;9.20;92.60
14877;DHT22;69691;48.172;17.070;2024-02-21T02:33:12;9.20;92.70
14877;DHT22;69691;48.172;17.070;2024-02-21T02:35:38;9.20;92.20
14877;DHT22;69691;48.172;17.070;2024-02-21T02:38:05;9.10;92.30
14877;DHT22;69691;48.172;17.070;2024-02-21T02:40:32;9.10;92.30
14877;DHT22;69691;48.172;17.070;2024-02-21T02:42:59;9.10;92.30
14877;DHT22;69691;48.172;17.070;2024-02-21T02:45:25;9.00;92.20
14877;DHT22;69691;48.172;17.070;2024-02-21T02:47:52;9.00;92.30
14877;DHT22;69691;48.172;17.070;2024-02-21T02:50:23;9.00;92.30
14877;DHT22;69691;48.172;17.070;2024-02-21T02:52:49;9.00;92.30
14877;DHT22;69691;48.172;17.070;2024-02-21T02:55:15;9.00;92.30
14877;DHT22;69691;48.172;17.070;2024-02-21T02:57:42;9.00;92.30
14877;DHT22;69691;48.172;17.070;2024-02-21T03:00:10;9.00;92.30
14877;DHT22;69691;48.172;17.070;2024-02-21T03:02:38;8.90;92.30
14877;DHT22;69691;48.172;17.070;2024-02-21T03:05:13;9.00;92.40
14877;DHT22;69691;48.172;17.070;2024-02-21T03:07:40;9.00;92.40
14877;DHT22;69691;48.172;17.070;2024-02-21T03:10:07;9.00;92.30
14877;DHT22;69691;48.172;17.070;2024-02-21T03:12:33;9.00;92.20
14877;DHT22;69691;48.172;17.070;2024-02-21T03:14:59;9.00;92.20
14877;DHT22;69691;48.172;17.070;2024-02-21T03:17:25;9.00;92.30
14877;DHT22;69691;48.172;17.070;2024-02-21T03:19:52;9.00;92.30
14877;DHT22;69691;48.172;17.070;2024-02-21T03:22:18;9.00;92.30
14877;DHT22;69691;48.172;17.070;2024-02-21T03:24:45;9.00;92.30
14877;DHT22;69691;48.172;17.070;2024-02-21T03:27:10;9.10;92.20
14877;DHT22;69691;48.172;17.070;2024-02-21T03:29:36;9.10;92.40
14877;DHT22;69691;48.172;17.070;2024-02-21T03:32:02;9.10;92.00
14877;DHT22;69691;48.172;17.070;2024-02-21T03:34:28;9.10;92.00
14877;DHT22;69691;48.172;17.070;2024-02-21T03:36:54;9.20;91.90
14877;DHT22;69691;48.172;17.070;2024-02-21T03:39:20;9.30;91.90
14877;DHT22;69691;48.172;17.070;2024-02-21T03:41:47;9.30;91.80
14877;DHT22;69691;48.172;17.070;2024-02-21T03:44:13;9.40;91.70
14877;DHT22;69691;48.172;17.070;2024-02-21T03:46:38;9.40;91.50
14877;DHT22;69691;48.172;17.070;2024-02-21T03:49:04;9.40;91.60
14877;DHT22;69691;48.172;17.070;2024-02-21T03:51:30;9.40;91.60
14877;DHT22;69691;48.172;17.070;2024-02-21T03:53:56;9.40;91.60
14877;DHT22;69691;48.172;17.070;2024-02-21T03:56:22;9.40;91.60
14877;DHT22;69691;48.172;17.070;2024-02-21T03:58:48;9.30;91.50
14877;DHT22;69691;48.172;17.070;2024-02-21T04:01:15;9.30;91.60
14877;DHT22;69691;48.172;17.070;2024-02-21T04:03:44;9.20;91.70
14877;DHT22;69691;48.172;17.070;2024-02-21T04:06:10;9.10;91.90
14877;DHT22;69691;48.172;17.070;2024-02-21T04:08:36;9.10;92.00
14877;DHT22;69691;48.172;17.070;2024-02-21T04:11:02;9.10;92.30
14877;DHT22;69691;48.172;17.070;2024-02-21T04:13:28;9.10;91.90
14877;DHT22;69691;48.172;17.070;2024-02-21T04:15:54;9.00;91.80
14877;DHT22;69691;48.172;17.070;2024-02-21T04:18:19;9.10;91.80
14877;DHT22;69691;48.172;17.070;2024-02-21T04:20:45;9.00;91.80
14877;DHT22;69691;48.172;17.070;2024-02-21T04:23:11;9.00;91.80
14877;DHT22;69691;48.172;17.070;2024-02-21T04:25:37;9.00;91.60
14877;DHT22;69691;48.172;17.070;2024-02-21T04:28:03;9.00;92.00
14877;DHT22;69691;48.172;17.070;2024-02-21T04:30:29;8.90;92.10
14877;DHT22;69691;48.172;17.070;2024-02-21T04:32:55;8.90;92.20
14877;DHT22;69691;48.172;17.070;2024-02-21T04:35:21;8.90;92.30
14877;DHT22;69691;48.172;17.070;2024-02-21T04:37:47;8.90;92.40
14877;DHT22;69691;48.172;17.070;2024-02-21T04:40:13;8.90;92.30
14877;DHT22;69691;48.172;17.070;2024-02-21T04:42:39;8.90;92.30
14877;DHT22;69691;48.172;17.070;2024-02-21T04:45:08;8.90;92.40
14877;DHT22;69691;48.172;17.070;2024-02-21T04:47:34;8.90;92.50
14877;DHT22;69691;48.172;17.070;2024-02-21T04:50:00;8.90;92.50
14877;DHT22;69691;48.172;17.070;2024-02-21T04:52:26;8.90;92.50
14877;DHT22;69691;48.172;17.070;2024-02-21T04:54:52;8.90;92.50
14877;DHT22;69691;48.172;17.070;2024-02-21T04:57:17;8.80;92.50
14877;DHT22;69691;48.172;17.070;2024-02-21T04:59:44;8.80;92.70
14877;DHT22;69691;48.172;17.070;2024-02-21T05:02:11;8.80;92.70
14877;DHT22;69691;48.172;17.070;2024-02-21T05:04:37;8.70;92.70
14877;DHT22;69691;48.172;17.070;2024-02-21T05:07:04;8.70;92.80
14877;DHT22;69691;48.172;17.070;2024-02-21T05:09:30;8.60;92.90
14877;DHT22;69691;48.172;17.070;2024-02-21T05:11:57;8.60;92.90
14877;DHT22;69691;48.172;17.070;2024-02-21T05:14:27;8.60;92.90
14877;DHT22;69691;48.172;17.070;2024-02-21T05:16:53;8.50;93.10
14877;DHT22;69691;48.172;17.070;2024-02-21T05:19:19;8.50;93.30
14877;DHT22;69691;48.172;17.070;2024-02-21T05:21:45;8.50;93.20
14877;DHT22;69691;48.172;17.070;2024-02-21T05:24:11;8.50;93.20
14877;DHT22;69691;48.172;17.070;2024-02-21T05:26:37;8.50;93.50
14877;DHT22;69691;48.172;17.070;2024-02-21T05:29:03;8.50;93.20
14877;DHT22;69691;48.172;17.070;2024-02-21T05:34:22;8.50;93.20
14877;DHT22;69691;48.172;17.070;2024-02-21T05:36:48;8.40;93.20
14877;DHT22;69691;48.172;17.070;2024-02-21T05:39:15;8.40;93.20
14877;DHT22;69691;48.172;17.070;2024-02-21T05:41:44;8.40;93.30
14877;DHT22;69691;48.172;17.070;2024-02-21T05:44:11;8.40;93.30
14877;DHT22;69691;48.172;17.070;2024-02-21T05:46:37;8.40;93.30
14877;DHT22;69691;48.172;17.070;2024-02-21T05:49:03;8.40;93.30
14877;DHT22;69691;48.172;17.070;2024-02-21T05:51:32;8.40;93.30
14877;DHT22;69691;48.172;17.070;2024-02-21T05:53:59;8.40;93.30
14877;DHT22;69691;48.172;17.070;2024-02-21T05:56:25;8.40;93.30
14877;DHT22;69691;48.172;17.070;2024-02-21T05:58:51;8.40;93.40
14877;DHT22;69691;48.172;17.070;2024-02-21T06:01:17;8.40;93.40
14877;DHT22;69691;48.172;17.070;2024-02-21T06:03:43;8.40;93.40
14877;DHT22;69691;48.172;17.070;2024-02-21T06:06:09;8.40;93.40
14877;DHT22;69691;48.172;17.070;2024-02-21T06:08:35;8.50;93.40
14877;DHT22;69691;48.172;17.070;2024-02-21T06:11:01;8.50;93.40
14877;DHT22;69691;48.172;17.070;2024-02-21T06:13:27;8.50;93.30
14877;DHT22;69691;48.172;17.070;2024-02-21T06:15:53;8.60;93.20
14877;DHT22;69691;48.172;17.070;2024-02-21T06:18:19;8.50;93.10
14877;DHT22;69691;48.172;17.070;2024-02-21T06:20:45;8.50;93.10
14877;DHT22;69691;48.172;17.070;2024-02-21T06:23:15;8.50;93.20
14877;DHT22;69691;48.172;17.070;2024-02-21T06:25:42;8.40;93.20
14877;DHT22;69691;48.172;17.070;2024-02-21T06:28:08;8.40;93.30
14877;DHT22;69691;48.172;17.070;2024-02-21T06:30:35;8.40;93.40
14877;DHT22;69691;48.172;17.070;2024-02-21T06:33:01;8.40;93.50
14877;DHT22;69691;48.172;17.070;2024-02-21T06:35:28;8.40;93.50
14877;DHT22;69691;48.172;17.070;2024-02-21T06:37:54;8.40;93.40
14877;DHT22;69691;48.172;17.070;2024-02-21T06:40:21;8.30;93.40
14877;DHT22;69691;48.172;17.070;2024-02-21T06:42:48;8.30;93.50
14877;DHT22;69691;48.172;17.070;2024-02-21T06:45:15;8.30;93.60
14877;DHT22;69691;48.172;17.070;2024-02-21T06:47:41;8.40;93.80
14877;DHT22;69691;48.172;17.070;2024-02-21T06:50:07;8.50;93.80
14877;DHT22;69691;48.172;17.070;2024-02-21T06:52:34;8.70;93.80
14877;DHT22;69691;48.172;17.070;2024-02-21T06:55:00;9.00;93.80
14877;DHT22;69691;48.172;17.070;2024-02-21T06:57:28;9.20;93.60
14877;DHT22;69691;48.172;17.070;2024-02-21T06:59:54;9.40;93.30
14877;DHT22;69691;48.172;17.070;2024-02-21T07:02:20;9.60;93.00
14877;DHT22;69691;48.172;17.070;2024-02-21T07:04:46;9.80;92.80
14877;DHT22;69691;48.172;17.070;2024-02-21T07:07:11;9.90;92.50
14877;DHT22;69691;48.172;17.070;2024-02-21T07:09:38;10.00;91.80
14877;DHT22;69691;48.172;17.070;2024-02-21T07:12:04;10.00;91.60
14877;DHT22;69691;48.172;17.070;2024-02-21T07:14:32;10.00;91.40
14877;DHT22;69691;48.172;17.070;2024-02-21T07:16:58;10.10;91.30
14877;DHT22;69691;48.172;17.070;2024-02-21T07:19:24;10.20;91.30
14877;DHT22;69691;48.172;17.070;2024-02-21T07:21:50;10.30;91.10
14877;DHT22;69691;48.172;17.070;2024-02-21T07:24:16;10.50;90.90
14877;DHT22;69691;48.172;17.070;2024-02-21T07:26:42;10.60;90.60
14877;DHT22;69691;48.172;17.070;2024-02-21T07:29:09;10.70;90.40
14877;DHT22;69691;48.172;17.070;2024-02-21T07:31:42;10.90;90.10
14877;DHT22;69691;48.172;17.070;2024-02-21T07:34:08;11.00;90.00
14877;DHT22;69691;48.172;17.070;2024-02-21T07:36:34;11.10;89.10
14877;DHT22;69691;48.172;17.070;2024-02-21T07:39:00;11.20;88.30
14877;DHT22;69691;48.172;17.070;2024-02-21T07:41:26;11.20;87.40
14877;DHT22;69691;48.172;17.070;2024-02-21T07:43:54;11.20;86.80
14877;DHT22;69691;48.172;17.070;2024-02-21T07:46:19;11.30;86.10
14877;DHT22;69691;48.172;17.070;2024-02-21T07:48:45;11.30;85.30
14877;DHT22;69691;48.172;17.070;2024-02-21T07:51:12;11.40;84.50
14877;DHT22;69691;48.172;17.070;2024-02-21T07:53:41;11.50;83.50
14877;DHT22;69691;48.172;17.070;2024-02-21T07:56:14;11.60;82.70
14877;DHT22;69691;48.172;17.070;2024-02-21T07:58:41;11.70;82.10
14877;DHT22;69691;48.172;17.070;2024-02-21T08:01:08;11.80;81.20
14877;DHT22;69691;48.172;17.070;2024-02-21T08:03:34;11.90;80.50
14877;DHT22;69691;48.172;17.070;2024-02-21T08:06:00;12.00;79.60
14877;DHT22;69691;48.172;17.070;2024-02-21T08:08:27;12.00;78.60
14877;DHT22;69691;48.172;17.070;2024-02-21T08:10:53;12.10;77.80
14877;DHT22;69691;48.172;17.070;2024-02-21T08:13:19;12.30;77.30
14877;DHT22;69691;48.172;17.070;2024-02-21T08:15:45;12.40;76.30
14877;DHT22;69691;48.172;17.070;2024-02-21T08:18:11;12.50;74.40
14877;DHT22;69691;48.172;17.070;2024-02-21T08:20:37;12.60;73.90
14877;DHT22;69691;48.172;17.070;2024-02-21T08:23:03;12.80;73.10
14877;DHT22;69691;48.172;17.070;2024-02-21T08:25:29;12.80;72.40
14877;DHT22;69691;48.172;17.070;2024-02-21T08:27:58;12.90;71.60
14877;DHT22;69691;48.172;17.070;2024-02-21T08:30:24;13.00;70.80
14877;DHT22;69691;48.172;17.070;2024-02-21T08:32:50;13.10;70.60
14877;DHT22;69691;48.172;17.070;2024-02-21T08:35:16;13.20;69.80
14877;DHT22;69691;48.172;17.070;2024-02-21T08:37:47;13.20;69.10
14877;DHT22;69691;48.172;17.070;2024-02-21T08:40:14;13.40;69.10
14877;DHT22;69691;48.172;17.070;2024-02-21T08:42:43;13.50;68.40
14877;DHT22;69691;48.172;17.070;2024-02-21T08:45:09;13.60;67.70
14877;DHT22;69691;48.172;17.070;2024-02-21T08:47:36;13.50;66.70
14877;DHT22;69691;48.172;17.070;2024-02-21T08:50:05;13.50;66.40
14877;DHT22;69691;48.172;17.070;2024-02-21T08:52:31;13.40;66.00
14877;DHT22;69691;48.172;17.070;2024-02-21T08:54:57;13.40;65.60
14877;DHT22;69691;48.172;17.070;2024-02-21T08:57:23;13.40;65.80
14877;DHT22;69691;48.172;17.070;2024-02-21T08:59:49;13.60;66.30
14877;DHT22;69691;48.172;17.070;2024-02-21T09:02:15;13.60;65.00
14877;DHT22;69691;48.172;17.070;2024-02-21T09:04:44;13.50;64.80
14877;DHT22;69691;48.172;17.070;2024-02-21T09:07:10;13.50;64.30
14877;DHT22;69691;48.172;17.070;2024-02-21T09:09:37;13.60;64.20
14877;DHT22;69691;48.172;17.070;2024-02-21T09:12:07;13.60;63.90
14877;DHT22;69691;48.172;17.070;2024-02-21T09:14:33;13.60;63.70
14877;DHT22;69691;48.172;17.070;2024-02-21T09:16:59;13.60;63.30
14877;DHT22;69691;48.172;17.070;2024-02-21T09:19:25;13.70;63.40
14877;DHT22;69691;48.172;17.070;2024-02-21T09:21:51;13.90;63.20
14877;DHT22;69691;48.172;17.070;2024-02-21T09:24:17;14.10;62.50
14877;DHT22;69691;48.172;17.070;2024-02-21T09:26:43;14.40;62.30
14877;DHT22;69691;48.172;17.070;2024-02-21T09:29:09;14.60;61.80
14877;DHT22;69691;48.172;17.070;2024-02-21T09:31:36;14.60;61.10
14877;DHT22;69691;48.172;17.070;2024-02-21T09:34:04;14.60;60.60
14877;DHT22;69691;48.172;17.070;2024-02-21T09:36:31;14.80;60.50
14877;DHT22;69691;48.172;17.070;2024-02-21T09:38:56;14.90;59.90
14877;DHT22;69691;48.172;17.070;2024-02-21T09:41:26;14.90;59.40
14877;DHT22;69691;48.172;17.070;2024-02-21T09:43:55;14.80;59.00
14877;DHT22;69691;48.172;17.070;2024-02-21T09:46:40;14.80;59.10
14877;DHT22;69691;48.172;17.070;2024-02-21T09:49:31;14.80;58.70
14877;DHT22;69691;48.172;17.070;2024-02-21T09:52:00;14.70;58.40
14877;DHT22;69691;48.172;17.070;2024-02-21T09:54:29;14.70;58.50
14877;DHT22;69691;48.172;17.070;2024-02-21T09:56:56;14.60;58.30
14877;DHT22;69691;48.172;17.070;2024-02-21T09:59:23;14.30;58.10
14877;DHT22;69691;48.172;17.070;2024-02-21T10:01:50;14.20;58.40
14877;DHT22;69691;48.172;17.070;2024-02-21T10:04:17;14.10;58.60
14877;DHT22;69691;48.172;17.070;2024-02-21T10:06:44;14.10;58.70
14877;DHT22;69691;48.172;17.070;2024-02-21T10:09:22;14.10;58.50
14877;DHT22;69691;48.172;17.070;2024-02-21T10:12:09;14.10;58.20
14877;DHT22;69691;48.172;17.070;2024-02-21T10:14:39;13.90;58.10
14877;DHT22;69691;48.172;17.070;2024-02-21T10:17:05;13.70;58.20
14877;DHT22;69691;48.172;17.070;2024-02-21T10:19:35;13.60;58.90
14877;DHT22;69691;48.172;17.070;2024-02-21T10:22:06;13.60;58.50
14877;DHT22;69691;48.172;17.070;2024-02-21T10:24:34;13.60;58.50
14877;DHT22;69691;48.172;17.070;2024-02-21T10:27:07;13.80;58.30
14877;DHT22;69691;48.172;17.070;2024-02-21T10:29:36;13.90;57.90
14877;DHT22;69691;48.172;17.070;2024-02-21T10:34:39;14.40;57.30
14877;DHT22;69691;48.172;17.070;2024-02-21T10:37:09;14.70;56.60
14877;DHT22;69691;48.172;17.070;2024-02-21T10:39:38;15.10;56.20
14877;DHT22;69691;48.172;17.070;2024-02-21T10:42:05;15.30;55.50
14877;DHT22;69691;48.172;17.070;2024-02-21T10:44:37;15.60;54.80
14877;DHT22;69691;48.172;17.070;2024-02-21T10:47:08;16.00;54.20
14877;DHT22;69691;48.172;17.070;2024-02-21T10:49:44;16.40;53.40
14877;DHT22;69691;48.172;17.070;2024-02-21T10:55:35;16.80;52.40
14877;DHT22;69691;48.172;17.070;2024-02-21T10:58:05;17.00;52.30
14877;DHT22;69691;48.172;17.070;2024-02-21T11:00:31;16.90;51.90
14877;DHT22;69691;48.172;17.070;2024-02-21T11:02:58;16.70;51.90
14877;DHT22;69691;48.172;17.070;2024-02-21T11:05:25;16.60;51.90
14877;DHT22;69691;48.172;17.070;2024-02-21T11:07:53;16.50;51.80
14877;DHT22;69691;48.172;17.070;2024-02-21T11:10:24;16.50;51.90
14877;DHT22;69691;48.172;17.070;2024-02-21T11:13:07;16.50;51.70
14877;DHT22;69691;48.172;17.070;2024-02-21T11:15:39;16.70;51.60
14877;DHT22;69691;48.172;17.070;2024-02-21T11:18:05;16.90;51.30
14877;DHT22;69691;48.172;17.070;2024-02-21T11:20:34;16.90;51.00
14877;DHT22;69691;48.172;17.070;2024-02-21T11:23:01;16.80;51.00
14877;DHT22;69691;48.172;17.070;2024-02-21T11:25:28;16.70;50.90
14877;DHT22;69691;48.172;17.070;2024-02-21T11:28:05;16.60;50.90
14877;DHT22;69691;48.172;17.070;2024-02-21T11:30:36;16.30;51.00
14877;DHT22;69691;48.172;17.070;2024-02-21T11:33:05;16.20;51.20
14877;DHT22;69691;48.172;17.070;2024-02-21T11:35:32;16.20;51.00
14877;DHT22;69691;48.172;17.070;2024-02-21T11:38:13;16.30;50.90
14877;DHT22;69691;48.172;17.070;2024-02-21T11:40:45;16.20;50.70
14877;DHT22;69691;48.172;17.070;2024-02-21T11:43:11;16.30;50.60
14877;DHT22;69691;48.172;17.070;2024-02-21T11:45:37;16.40;50.40
14877;DHT22;69691;48.172;17.070;2024-02-21T11:48:08;16.50;50.10
14877;DHT22;69691;48.172;17.070;2024-02-21T11:50:37;16.60;50.00
14877;DHT22;69691;48.172;17.070;2024-02-21T11:53:05;16.70;50.00
14877;DHT22;69691;48.172;17.070;2024-02-21T11:55:31;16.90;49.80
14877;DHT22;69691;48.172;17.070;2024-02-21T11:57:57;17.00;49.50
14877;DHT22;69691;48.172;17.070;2024-02-21T12:00:23;16.90;49.40
14877;DHT22;69691;48.172;17.070;2024-02-21T12:02:52;16.90;49.20
14877;DHT22;69691;48.172;17.070;2024-02-21T12:05:19;17.00;49.10
14877;DHT22;69691;48.172;17.070;2024-02-21T12:07:45;17.00;48.70
14877;DHT22;69691;48.172;17.070;2024-02-21T12:10:12;16.80;48.70
14877;DHT22;69691;48.172;17.070;2024-02-21T12:12:39;16.80;48.80
14877;DHT22;69691;48.172;17.070;2024-02-21T12:15:07;16.90;48.90
14877;DHT22;69691;48.172;17.070;2024-02-21T12:17:34;17.00;48.80
14877;DHT22;69691;48.172;17.070;2024-02-21T12:20:03;17.10;48.50
14877;DHT22;69691;48.172;17.070;2024-02-21T12:22:37;17.10;48.40
14877;DHT22;69691;48.172;17.070;2024-02-21T12:25:04;17.20;48.90
14877;DHT22;69691;48.172;17.070;2024-02-21T12:27:41;17.10;48.30
14877;DHT22;69691;48.172;17.070;2024-02-21T12:30:07;16.90;48.40
14877;DHT22;69691;48.172;17.070;2024-02-21T12:32:36;16.80;48.60
14877;DHT22;69691;48.172;17.070;2024-02-21T12:35:02;16.90;48.70
14877;DHT22;69691;48.172;17.070;2024-02-21T12:37:28;16.90;48.60
14877;DHT22;69691;48.172;17.070;2024-02-21T12:39:54;17.00;48.50
14877;DHT22;69691;48.172;17.070;2024-02-21T12:42:20;17.10;48.10
14877;DHT22;69691;48.172;17.070;2024-02-21T12:44:46;17.10;47.80
14877;DHT22;69691;48.172;17.070;2024-02-21T12:47:12;17.10;47.70
14877;DHT22;69691;48.172;17.070;2024-02-21T12:49:38;16.90;47.60
14877;DHT22;69691;48.172;17.070;2024-02-21T12:52:04;16.90;47.70
14877;DHT22;69691;48.172;17.070;2024-02-21T12:54:29;16.80;47.80
14877;DHT22;69691;48.172;17.070;2024-02-21T12:56:56;16.70;48.00
14877;DHT22;69691;48.172;17.070;2024-02-21T12:59:22;16.70;48.00
14877;DHT22;69691;48.172;17.070;2024-02-21T13:01:48;16.80;47.90
14877;DHT22;69691;48.172;17.070;2024-02-21T13:04:14;16.70;47.90
14877;DHT22;69691;48.172;17.070;2024-02-21T13:06:40;16.60;47.90
14877;DHT22;69691;48.172;17.070;2024-02-21T13:09:06;16.60;47.90
14877;DHT22;69691;48.172;17.070;2024-02-21T13:11:34;16.50;47.80
14877;DHT22;69691;48.172;17.070;2024-02-21T13:14:00;16.50;47.80
14877;DHT22;69691;48.172;17.070;2024-02-21T13:16:26;16.50;47.70
14877;DHT22;69691;48.172;17.070;2024-02-21T13:18:52;16.60;47.70
14877;DHT22;69691;48.172;17.070;2024-02-21T13:21:18;16.60;47.80
14877;DHT22;69691;48.172;17.070;2024-02-21T13:23:44;16.60;47.70
14877;DHT22;69691;48.172;17.070;2024-02-21T13:26:10;16.60;47.70
14877;DHT22;69691;48.172;17.070;2024-02-21T13:28:36;16.50;47.60
14877;DHT22;69691;48.172;17.070;2024-02-21T13:31:02;16.30;47.80
14877;DHT22;69691;48.172;17.070;2024-02-21T13:33:28;16.20;48.00
14877;DHT22;69691;48.172;17.070;2024-02-21T13:35:54;16.20;48.10
14877;DHT22;69691;48.172;17.070;2024-02-21T13:38:20;16.20;48.20
14877;DHT22;69691;48.172;17.070;2024-02-21T13:40:46;16.10;48.30
14877;DHT22;69691;48.172;17.070;2024-02-21T13:43:12;16.10;48.40
14877;DHT22;69691;48.172;17.070;2024-02-21T13:45:38;16.00;48.60
14877;DHT22;69691;48.172;17.070;2024-02-21T13:48:07;15.90;49.50
14877;DHT22;69691;48.172;17.070;2024-02-21T13:50:36;15.90;49.10
14877;DHT22;69691;48.172;17.070;2024-02-21T13:53:08;15.80;49.10
14877;DHT22;69691;48.172;17.070;2024-02-21T13:55:35;15.80;49.70
14877;DHT22;69691;48.172;17.070;2024-02-21T13:58:01;15.90;48.90
14877;DHT22;69691;48.172;17.070;2024-02-21T14:00:28;15.90;48.60
14877;DHT22;69691;48.172;17.070;2024-02-21T14:02:54;15.80;48.40
14877;DHT22;69691;48.172;17.070;2024-02-21T14:05:20;15.80;48.50
14877;DHT22;69691;48.172;17.070;2024-02-21T14:07:46;15.80;48.30
14877;DHT22;69691;48.172;17.070;2024-02-21T14:10:12;15.80;48.20
14877;DHT22;69691;48.172;17.070;2024-02-21T14:12:37;15.80;48.30
14877;DHT22;69691;48.172;17.070;2024-02-21T14:15:04;15.80;48.40
14877;DHT22;69691;48.172;17.070;2024-02-21T14:17:30;15.90;48.40
14877;DHT22;69691;48.172;17.070;2024-02-21T14:19:56;15.90;48.20
14877;DHT22;69691;48.172;17.070;2024-02-21T14:22:22;15.90;47.90
14877;DHT22;69691;48.172;17.070;2024-02-21T14:24:48;15.90;47.70
14877;DHT22;69691;48.172;17.070;2024-02-21T14:27:13;15.90;47.50
14877;DHT22;69691;48.172;17.070;2024-02-21T14:29:39;15.90;47.40
14877;DHT22;69691;48.172;17.070;2024-02-21T14:32:05;15.80;47.50
14877;DHT22;69691;48.172;17.070;2024-02-21T14:34:32;15.70;47.60
14877;DHT22;69691;48.172;17.070;2024-02-21T14:36:58;15.40;47.70
14877;DHT22;69691;48.172;17.070;2024-02-21T14:39:24;15.20;47.80
14877;DHT22;69691;48.172;17.070;2024-02-21T14:41:50;15.10;48.70
14877;DHT22;69691;48.172;17.070;2024-02-21T14:44:16;15.00;48.20
14877;DHT22;69691;48.172;17.070;2024-02-21T14:46:42;14.80;48.40
14877;DHT22;69691;48.172;17.070;2024-02-21T14:49:07;14.60;48.60
14877;DHT22;69691;48.172;17.070;2024-02-21T14:51:33;14.50;48.80
14877;DHT22;69691;48.172;17.070;2024-02-21T14:53:59;14.50;48.90
14877;DHT22;69691;48.172;17.070;2024-02-21T14:56:25;14.60;48.90
14877;DHT22;69691;48.172;17.070;2024-02-21T14:58:51;14.60;48.90
14877;DHT22;69691;48.172;17.070;2024-02-21T15:01:17;14.70;49.00
14877;DHT22;69691;48.172;17.070;2024-02-21T15:03:43;14.70;49.00
14877;DHT22;69691;48.172;17.070;2024-02-21T15:06:09;14.60;49.00
14877;DHT22;69691;48.172;17.070;2024-02-21T15:08:35;14.60;49.00
14877;DHT22;69691;48.172;17.070;2024-02-21T15:11:01;14.60;49.00
14877;DHT22;69691;48.172;17.070;2024-02-21T15:13:28;14.50;49.00
14877;DHT22;69691;48.172;17.070;2024-02-21T15:15:55;14.50;49.00
14877;DHT22;69691;48.172;17.070;2024-02-21T15:18:21;14.50;49.00
14877;DHT22;69691;48.172;17.070;2024-02-21T15:20:47;14.50;49.10
14877;DHT22;69691;48.172;17.070;2024-02-21T15:23:13;14.50;49.30
14877;DHT22;69691;48.172;17.070;2024-02-21T15:25:39;14.40;49.70
14877;DHT22;69691;48.172;17.070;2024-02-21T15:28:05;14.40;49.70
14877;DHT22;69691;48.172;17.070;2024-02-21T15:30:31;14.40;49.60
14877;DHT22;69691;48.172;17.070;2024-02-21T15:32:58;14.40;49.80